METAR Data
IDs: Format: Raw Decoded Include TAF

Data at: 1348 UTC 13 Dec 2019

METAR for:KCVO (Corvallis Muni, OR, US)
Text:KCVO 131325Z AUTO 00000KT 10SM BKN004 04/03 A3016 RMK AO2
Temperature: 4.0°C ( 39°F)
Dewpoint: 3.0°C ( 37°F) [RH = 93%]
Pressure (altimeter):30.16 inches Hg (1021.4 mb)
Winds:calm
Visibility:10 or more sm (16+ km)
Ceiling:400 feet AGL
Clouds: broken clouds at 400 feet AGL
QC Flag:automated observation with no human augmentation
Text:KCVO 131315Z AUTO 00000KT 10SM SCT004 04/03 A3016 RMK AO2
Temperature: 4.0°C ( 39°F)
Dewpoint: 3.0°C ( 37°F) [RH = 93%]
Pressure (altimeter):30.16 inches Hg (1021.4 mb)
Winds:calm
Visibility:10 or more sm (16+ km)
Ceiling:at least 12,000 feet AGL
Clouds: scattered clouds at 400 feet AGL
QC Flag:automated observation with no human augmentation
Text:KCVO 131256Z AUTO 00000KT 10SM CLR 04/04 A3017 RMK AO2 SLP217 T00440039
Temperature: 4.4°C ( 40°F)
Dewpoint: 3.9°C ( 39°F) [RH = 97%]
Pressure (altimeter):30.17 inches Hg (1021.8 mb) [Sea level pressure: 1021.7 mb]
Winds:calm
Visibility:10 or more sm (16+ km)
Ceiling:at least 12,000 feet AGL
Clouds:sky clear below 12,000 feet AGL
QC Flag:automated observation with no human augmentation
Text:KCVO 131156Z AUTO 22003KT 10SM FEW033 04/04 A3018 RMK AO2 SLP223 70040 T00440044 10083 20044 58005
Temperature: 4.4°C ( 40°F)
Dewpoint: 4.4°C ( 40°F) [RH = 100%]
Pressure (altimeter):30.18 inches Hg (1022.1 mb) [Sea level pressure: 1022.3 mb]
Winds:from the SW (220 degrees) at 3 MPH (3 knots; 1.5 m/s)
Visibility:10 or more sm (16+ km)
Ceiling:at least 12,000 feet AGL
Clouds: few clouds at 3300 feet AGL
QC Flag:automated observation with no human augmentation
Text:KCVO 131056Z AUTO 00000KT 10SM CLR 05/05 A3019 RMK AO2 SLP224 T00500050
Temperature: 5.0°C ( 41°F)
Dewpoint: 5.0°C ( 41°F) [RH = 100%]
Pressure (altimeter):30.19 inches Hg (1022.4 mb) [Sea level pressure: 1022.4 mb]
Winds:calm
Visibility:10 or more sm (16+ km)
Ceiling:at least 12,000 feet AGL
Clouds:sky clear below 12,000 feet AGL
QC Flag:automated observation with no human augmentation
Text:KCVO 130956Z AUTO 12004KT 10SM FEW033 06/06 A3020 RMK AO2 SLP228 T00560056
Temperature: 5.6°C ( 42°F)
Dewpoint: 5.6°C ( 42°F) [RH = 100%]
Pressure (altimeter):30.20 inches Hg (1022.8 mb) [Sea level pressure: 1022.8 mb]
Winds:from the ESE (120 degrees) at 5 MPH (4 knots; 2.1 m/s)
Visibility:10 or more sm (16+ km)
Ceiling:at least 12,000 feet AGL
Clouds: few clouds at 3300 feet AGL
QC Flag:automated observation with no human augmentation
Text:KCVO 130856Z AUTO 18007KT 10SM CLR 07/06 A3020 RMK AO2 SLP227 T00720061 50004
Temperature: 7.2°C ( 45°F)
Dewpoint: 6.1°C ( 43°F) [RH = 93%]
Pressure (altimeter):30.20 inches Hg (1022.8 mb) [Sea level pressure: 1022.7 mb]
Winds:from the S (180 degrees) at 8 MPH (7 knots; 3.6 m/s)
Visibility:10 or more sm (16+ km)
Ceiling:at least 12,000 feet AGL
Clouds:sky clear below 12,000 feet AGL
QC Flag:automated observation with no human augmentation
Text:KCVO 130756Z AUTO 19008KT 10SM SCT026 08/06 A3022 RMK AO2 SLP233 T00780061 401330067
Temperature: 7.8°C ( 46°F)
Dewpoint: 6.1°C ( 43°F) [RH = 89%]
Pressure (altimeter):30.22 inches Hg (1023.5 mb) [Sea level pressure: 1023.3 mb]
Winds:from the S (190 degrees) at 9 MPH (8 knots; 4.1 m/s)
Visibility:10 or more sm (16+ km)
Ceiling:at least 12,000 feet AGL
Clouds: scattered clouds at 2600 feet AGL
QC Flag:automated observation with no human augmentation
Text:KCVO 130656Z AUTO 19011KT 10SM CLR 07/06 A3020 RMK AO2 SLP227 T00720056
Temperature: 7.2°C ( 45°F)
Dewpoint: 5.6°C ( 42°F) [RH = 90%]
Pressure (altimeter):30.20 inches Hg (1022.8 mb) [Sea level pressure: 1022.7 mb]
Winds:from the S (190 degrees) at 13 MPH (11 knots; 5.7 m/s)
Visibility:10 or more sm (16+ km)
Ceiling:at least 12,000 feet AGL
Clouds:sky clear below 12,000 feet AGL
QC Flag:automated observation with no human augmentation
Text:KCVO 130556Z AUTO 18010KT 10SM BKN040 BKN047 08/06 A3018 RMK AO2 RAE03 SLP222 P0000 60001 T00780061 10111 20072 51006
Temperature: 7.8°C ( 46°F)
Dewpoint: 6.1°C ( 43°F) [RH = 89%]
Pressure (altimeter):30.18 inches Hg (1022.1 mb) [Sea level pressure: 1022.2 mb]
Winds:from the S (180 degrees) at 12 MPH (10 knots; 5.1 m/s)
Visibility:10 or more sm (16+ km)
Ceiling:4000 feet AGL
Clouds: broken clouds at 4000 feet AGL, broken clouds at 4700 feet AGL
QC Flag:automated observation with no human augmentation
Text:KCVO 130509Z AUTO 18011KT 10SM SCT027 SCT036 BKN046 08/07 A3018 RMK AO2 RAE03 P0000
Temperature: 8.0°C ( 46°F)
Dewpoint: 7.0°C ( 45°F) [RH = 93%]
Pressure (altimeter):30.18 inches Hg (1022.1 mb)
Winds:from the S (180 degrees) at 13 MPH (11 knots; 5.7 m/s)
Visibility:10 or more sm (16+ km)
Ceiling:4600 feet AGL
Clouds: scattered clouds at 2700 feet AGL, scattered clouds at 3600 feet AGL, broken clouds at 4600 feet AGL
QC Flag:automated observation with no human augmentation
Text:KCVO 130456Z AUTO 17010KT 10SM -RA BKN027 OVC035 08/07 A3018 RMK AO2 RAB45 SLP221 P0000 T00830072
Temperature: 8.3°C ( 47°F)
Dewpoint: 7.2°C ( 45°F) [RH = 93%]
Pressure (altimeter):30.18 inches Hg (1022.1 mb) [Sea level pressure: 1022.1 mb]
Winds:from the S (170 degrees) at 12 MPH (10 knots; 5.1 m/s)
Visibility:10 or more sm (16+ km)
Ceiling:2700 feet AGL
Clouds: broken clouds at 2700 feet AGL, overcast cloud deck at 3500 feet AGL
Weather:-RA (light rain)
QC Flag:automated observation with no human augmentation
Text:KCVO 130444Z AUTO 18010KT 10SM BKN027 BKN033 OVC043 08/07 A3018 RMK AO2 LTG DSNT SW
Temperature: 8.0°C ( 46°F)
Dewpoint: 7.0°C ( 45°F) [RH = 93%]
Pressure (altimeter):30.18 inches Hg (1022.1 mb)
Winds:from the S (180 degrees) at 12 MPH (10 knots; 5.1 m/s)
Visibility:10 or more sm (16+ km)
Ceiling:2700 feet AGL
Clouds: broken clouds at 2700 feet AGL, broken clouds at 3300 feet AGL, overcast cloud deck at 4300 feet AGL
QC Flag:automated observation with no human augmentation
Text:KCVO 130356Z AUTO 18010KT 10SM FEW029 BKN036 OVC045 08/07 A3018 RMK AO2 SLP219 T00830072
Temperature: 8.3°C ( 47°F)
Dewpoint: 7.2°C ( 45°F) [RH = 93%]
Pressure (altimeter):30.18 inches Hg (1022.1 mb) [Sea level pressure: 1021.9 mb]
Winds:from the S (180 degrees) at 12 MPH (10 knots; 5.1 m/s)
Visibility:10 or more sm (16+ km)
Ceiling:3600 feet AGL
Clouds: few clouds at 2900 feet AGL, broken clouds at 3600 feet AGL, overcast cloud deck at 4500 feet AGL
QC Flag:automated observation with no human augmentation
Text:KCVO 130256Z AUTO 17009KT 10SM BKN047 08/07 A3017 RMK AO2 SLP216 60001 T00830072 53015
Temperature: 8.3°C ( 47°F)
Dewpoint: 7.2°C ( 45°F) [RH = 93%]
Pressure (altimeter):30.17 inches Hg (1021.8 mb) [Sea level pressure: 1021.6 mb]
Winds:from the S (170 degrees) at 10 MPH (9 knots; 4.6 m/s)
Visibility:10 or more sm (16+ km)
Ceiling:4700 feet AGL
Clouds: broken clouds at 4700 feet AGL
QC Flag:automated observation with no human augmentation
Text:KCVO 130156Z AUTO 15008KT 10SM SCT029 BKN047 09/07 A3015 RMK AO2 RAE03 SLP209 P0000 T00890072
Temperature: 8.9°C ( 48°F)
Dewpoint: 7.2°C ( 45°F) [RH = 89%]
Pressure (altimeter):30.15 inches Hg (1021.1 mb) [Sea level pressure: 1020.9 mb]
Winds:from the SSE (150 degrees) at 9 MPH (8 knots; 4.1 m/s)
Visibility:10 or more sm (16+ km)
Ceiling:4700 feet AGL
Clouds: scattered clouds at 2900 feet AGL, broken clouds at 4700 feet AGL
QC Flag:automated observation with no human augmentation
Text:KCVO 130056Z AUTO 15005KT 10SM -RA FEW035 BKN055 OVC095 09/07 A3014 RMK AO2 SLP207 P0001 T00890067
Temperature: 8.9°C ( 48°F)
Dewpoint: 6.7°C ( 44°F) [RH = 86%]
Pressure (altimeter):30.14 inches Hg (1020.7 mb) [Sea level pressure: 1020.7 mb]
Winds:from the SSE (150 degrees) at 6 MPH (5 knots; 2.6 m/s)
Visibility:10 or more sm (16+ km)
Ceiling:5500 feet AGL
Clouds: few clouds at 3500 feet AGL, broken clouds at 5500 feet AGL, overcast cloud deck at 9500 feet AGL
Weather:-RA (light rain)
QC Flag:automated observation with no human augmentation
Text:KCVO 122356Z AUTO 25006KT 10SM -RA FEW029 BKN055 OVC070 11/08 A3012 RMK AO2 RAB39 SLP201 P0000 60017 T01110078 10133 20094 53027
Temperature: 11.1°C ( 52°F)
Dewpoint: 7.8°C ( 46°F) [RH = 80%]
Pressure (altimeter):30.12 inches Hg (1020.1 mb) [Sea level pressure: 1020.1 mb]
Winds:from the WSW (250 degrees) at 7 MPH (6 knots; 3.1 m/s)
Visibility:10 or more sm (16+ km)
Ceiling:5500 feet AGL
Clouds: few clouds at 2900 feet AGL, broken clouds at 5500 feet AGL, overcast cloud deck at 7000 feet AGL
Weather:-RA (light rain)
QC Flag:automated observation with no human augmentation
Text:KCVO 122256Z AUTO 25008KT 10SM FEW065 SCT090 BKN110 13/08 A3009 RMK AO2 SLP190 T01280078
Temperature: 12.8°C ( 55°F)
Dewpoint: 7.8°C ( 46°F) [RH = 72%]
Pressure (altimeter):30.09 inches Hg (1019.0 mb) [Sea level pressure: 1019.0 mb]
Winds:from the WSW (250 degrees) at 9 MPH (8 knots; 4.1 m/s)
Visibility:10 or more sm (16+ km)
Ceiling:11000 feet AGL
Clouds: few clouds at 6500 feet AGL, scattered clouds at 9000 feet AGL, broken clouds at 11000 feet AGL
QC Flag:automated observation with no human augmentation
Text:KCVO 122156Z AUTO 25007KT 10SM CLR 12/09 A3006 RMK AO2 SLP180 P0001 T01220089
Temperature: 12.2°C ( 54°F)
Dewpoint: 8.9°C ( 48°F) [RH = 80%]
Pressure (altimeter):30.06 inches Hg (1018.0 mb) [Sea level pressure: 1018.0 mb]
Winds:from the WSW (250 degrees) at 8 MPH (7 knots; 3.6 m/s)
Visibility:10 or more sm (16+ km)
Ceiling:at least 12,000 feet AGL
Clouds:sky clear below 12,000 feet AGL
QC Flag:automated observation with no human augmentation
Text:KCVO 122056Z AUTO 21007KT 10SM FEW032 SCT042 11/09 A3004 RMK AO2 RAE14 SLP175 P0000 60016 T01110089 51014
Temperature: 11.1°C ( 52°F)
Dewpoint: 8.9°C ( 48°F) [RH = 86%]
Pressure (altimeter):30.04 inches Hg (1017.4 mb) [Sea level pressure: 1017.5 mb]
Winds:from the SSW (210 degrees) at 8 MPH (7 knots; 3.6 m/s)
Visibility:10 or more sm (16+ km)
Ceiling:at least 12,000 feet AGL
Clouds: few clouds at 3200 feet AGL, scattered clouds at 4200 feet AGL
QC Flag:automated observation with no human augmentation
Text:KCVO 122030Z AUTO 18008KT 10SM FEW018 SCT027 OVC037 12/10 A3003 RMK AO2 RAE14 P0000
Temperature: 12.0°C ( 54°F)
Dewpoint: 10.0°C ( 50°F) [RH = 88%]
Pressure (altimeter):30.03 inches Hg (1017.0 mb)
Winds:from the S (180 degrees) at 9 MPH (8 knots; 4.1 m/s)
Visibility:10 or more sm (16+ km)
Ceiling:3700 feet AGL
Clouds: few clouds at 1800 feet AGL, scattered clouds at 2700 feet AGL, overcast cloud deck at 3700 feet AGL
QC Flag:automated observation with no human augmentation
Text:KCVO 121956Z AUTO 17009KT 10SM -RA BKN019 OVC029 11/09 A3003 RMK AO2 RAB37 SLP169 P0000 T01110089
Temperature: 11.1°C ( 52°F)
Dewpoint: 8.9°C ( 48°F) [RH = 86%]
Pressure (altimeter):30.03 inches Hg (1017.0 mb) [Sea level pressure: 1016.9 mb]
Winds:from the S (170 degrees) at 10 MPH (9 knots; 4.6 m/s)
Visibility:10 or more sm (16+ km)
Ceiling:1900 feet AGL
Clouds: broken clouds at 1900 feet AGL, overcast cloud deck at 2900 feet AGL
Weather:-RA (light rain)
QC Flag:automated observation with no human augmentation
Text:KCVO 121946Z AUTO 17010G17KT 10SM -RA BKN019 BKN025 OVC033 11/08 A3003 RMK AO2 RAB37 P0000
Temperature: 11.0°C ( 52°F)
Dewpoint: 8.0°C ( 46°F) [RH = 82%]
Pressure (altimeter):30.03 inches Hg (1017.0 mb)
Winds:from the S (170 degrees) at 12 MPH (10 knots; 5.1 m/s) gusting to 20 MPH (17 knots; 8.7 m/s)
Visibility:10 or more sm (16+ km)
Ceiling:1900 feet AGL
Clouds: broken clouds at 1900 feet AGL, broken clouds at 2500 feet AGL, overcast cloud deck at 3300 feet AGL
Weather:-RA (light rain)
QC Flag:automated observation with no human augmentation
Text:KCVO 121856Z AUTO 16007KT 10SM SCT045 BKN070 OVC100 10/09 A3002 RMK AO2 RAE43 SLP167 P0016 T01000089
Temperature: 10.0°C ( 50°F)
Dewpoint: 8.9°C ( 48°F) [RH = 93%]
Pressure (altimeter):30.02 inches Hg (1016.7 mb) [Sea level pressure: 1016.7 mb]
Winds:from the SSE (160 degrees) at 8 MPH (7 knots; 3.6 m/s)
Visibility:10 or more sm (16+ km)
Ceiling:7000 feet AGL
Clouds: scattered clouds at 4500 feet AGL, broken clouds at 7000 feet AGL, overcast cloud deck at 10000 feet AGL
QC Flag:automated observation with no human augmentation
Text:KCVO 121848Z AUTO 17007KT 10SM FEW009 BKN070 OVC120 11/08 A3001 RMK AO2 RAE43 P0016
Temperature: 11.0°C ( 52°F)
Dewpoint: 8.0°C ( 46°F) [RH = 82%]
Pressure (altimeter):30.01 inches Hg (1016.3 mb)
Winds:from the S (170 degrees) at 8 MPH (7 knots; 3.6 m/s)
Visibility:10 or more sm (16+ km)
Ceiling:7000 feet AGL
Clouds: few clouds at 900 feet AGL, broken clouds at 7000 feet AGL, overcast cloud deck at 12000 feet AGL
QC Flag:automated observation with no human augmentation
Text:KCVO 121827Z AUTO 28015G18KT 4SM RA BR FEW003 BKN019 OVC035 10/09 A3005 RMK AO2 CIG 015V024 PRESRR P0014
Temperature: 10.0°C ( 50°F)
Dewpoint: 9.0°C ( 48°F) [RH = 93%]
Pressure (altimeter):30.05 inches Hg (1017.7 mb)
Winds:from the W (280 degrees) at 17 MPH (15 knots; 7.7 m/s) gusting to 21 MPH (18 knots; 9.3 m/s)
Visibility: 4 sm ( 6 km)
Ceiling:1900 feet AGL
Clouds: few clouds at 300 feet AGL, broken clouds at 1900 feet AGL, overcast cloud deck at 3500 feet AGL
Weather:RA BR (moderate rain, mist)
QC Flag:automated observation with no human augmentation
Text:KCVO 121819Z AUTO 25007KT 2 1/2SM RA BR FEW006 BKN021 OVC035 09/09 A3003 RMK AO2 PRESRR P0008
Temperature: 9.0°C ( 48°F)
Dewpoint: 9.0°C ( 48°F) [RH = 100%]
Pressure (altimeter):30.03 inches Hg (1017.0 mb)
Winds:from the WSW (250 degrees) at 8 MPH (7 knots; 3.6 m/s)
Visibility: 2.50 sm ( 4.02 km)
Ceiling:2100 feet AGL
Clouds: few clouds at 600 feet AGL, broken clouds at 2100 feet AGL, overcast cloud deck at 3500 feet AGL
Weather:RA BR (moderate rain, mist)
QC Flag:automated observation with no human augmentation
Text:KCVO 121756Z AUTO 19003KT 2 1/2SM -RA BR FEW021 BKN030 OVC050 09/09 A3000 RMK AO2 LTG DSNT SW SLP160 P0018 60022 T00940089 10094 20072 56010
Temperature: 9.4°C ( 49°F)
Dewpoint: 8.9°C ( 48°F) [RH = 97%]
Pressure (altimeter):30.00 inches Hg (1016.0 mb) [Sea level pressure: 1016.0 mb]
Winds:from the S (190 degrees) at 3 MPH (3 knots; 1.5 m/s)
Visibility: 2.50 sm ( 4.02 km)
Ceiling:3000 feet AGL
Clouds: few clouds at 2100 feet AGL, broken clouds at 3000 feet AGL, overcast cloud deck at 5000 feet AGL
Weather:-RA BR (light rain, mist)
QC Flag:automated observation with no human augmentation
Text:KCVO 121746Z AUTO 15003KT 2 1/2SM -RA BR SCT032 BKN043 OVC050 09/09 A3000 RMK AO2 VIS 2V4 LTG DSNT SW P0016
Temperature: 9.0°C ( 48°F)
Dewpoint: 9.0°C ( 48°F) [RH = 100%]
Pressure (altimeter):30.00 inches Hg (1016.0 mb)
Winds:from the SSE (150 degrees) at 3 MPH (3 knots; 1.5 m/s)
Visibility: 2.50 sm ( 4.02 km)
Ceiling:4300 feet AGL
Clouds: scattered clouds at 3200 feet AGL, broken clouds at 4300 feet AGL, overcast cloud deck at 5000 feet AGL
Weather:-RA BR (light rain, mist)
QC Flag:automated observation with no human augmentation
Text:KCVO 121721Z AUTO VRB03KT 4SM RA BR FEW009 BKN041 OVC050 09/09 A3000 RMK AO2 P0007
Temperature: 9.0°C ( 48°F)
Dewpoint: 9.0°C ( 48°F) [RH = 100%]
Pressure (altimeter):30.00 inches Hg (1016.0 mb)
Winds:variable direction winds at 3 MPH (3 knots; 1.5 m/s)
Visibility: 4 sm ( 6 km)
Ceiling:4100 feet AGL
Clouds: few clouds at 900 feet AGL, broken clouds at 4100 feet AGL, overcast cloud deck at 5000 feet AGL
Weather:RA BR (moderate rain, mist)
QC Flag:automated observation with no human augmentation
Text:KCVO 121656Z AUTO 21005KT 7SM -RA SCT034 BKN041 OVC055 09/09 A3001 RMK AO2 RAE01B37 SLP163 P0003 T00940089
Temperature: 9.4°C ( 49°F)
Dewpoint: 8.9°C ( 48°F) [RH = 97%]
Pressure (altimeter):30.01 inches Hg (1016.3 mb) [Sea level pressure: 1016.3 mb]
Winds:from the SSW (210 degrees) at 6 MPH (5 knots; 2.6 m/s)
Visibility: 7 sm ( 11 km)
Ceiling:4100 feet AGL
Clouds: scattered clouds at 3400 feet AGL, broken clouds at 4100 feet AGL, overcast cloud deck at 5500 feet AGL
Weather:-RA (light rain)
QC Flag:automated observation with no human augmentation
Text:KCVO 121556Z AUTO 18006KT 10SM -RA SCT036 BKN050 OVC090 08/08 A3000 RMK AO2 RAE15B46 SLP161 P0000 T00780078
Temperature: 7.8°C ( 46°F)
Dewpoint: 7.8°C ( 46°F) [RH = 100%]
Pressure (altimeter):30.00 inches Hg (1016.0 mb) [Sea level pressure: 1016.1 mb]
Winds:from the S (180 degrees) at 7 MPH (6 knots; 3.1 m/s)
Visibility:10 or more sm (16+ km)
Ceiling:5000 feet AGL
Clouds: scattered clouds at 3600 feet AGL, broken clouds at 5000 feet AGL, overcast cloud deck at 9000 feet AGL
Weather:-RA (light rain)
QC Flag:automated observation with no human augmentation
Text:KCVO 121456Z AUTO 18005KT 10SM -RA SCT027 BKN041 OVC065 08/08 A3003 RMK AO2 RAB37 SLP170 P0001 60001 T00780078 51000
Temperature: 7.8°C ( 46°F)
Dewpoint: 7.8°C ( 46°F) [RH = 100%]
Pressure (altimeter):30.03 inches Hg (1017.0 mb) [Sea level pressure: 1017.0 mb]
Winds:from the S (180 degrees) at 6 MPH (5 knots; 2.6 m/s)
Visibility:10 or more sm (16+ km)
Ceiling:4100 feet AGL
Clouds: scattered clouds at 2700 feet AGL, broken clouds at 4100 feet AGL, overcast cloud deck at 6500 feet AGL
Weather:-RA (light rain)
QC Flag:automated observation with no human augmentation
Text:KCVO 121433Z AUTO 16006KT 10SM BKN029 OVC033 08/08 A3004 RMK AO2
Temperature: 8.0°C ( 46°F)
Dewpoint: 8.0°C ( 46°F) [RH = 100%]
Pressure (altimeter):30.04 inches Hg (1017.4 mb)
Winds:from the SSE (160 degrees) at 7 MPH (6 knots; 3.1 m/s)
Visibility:10 or more sm (16+ km)
Ceiling:2900 feet AGL
Clouds: broken clouds at 2900 feet AGL, overcast cloud deck at 3300 feet AGL
QC Flag:automated observation with no human augmentation
Text:KCVO 121356Z AUTO 17007KT 10SM OVC035 08/08 A3003 RMK AO2 SLP172 T00830078
Temperature: 8.3°C ( 47°F)
Dewpoint: 7.8°C ( 46°F) [RH = 97%]
Pressure (altimeter):30.03 inches Hg (1017.0 mb) [Sea level pressure: 1017.2 mb]
Winds:from the S (170 degrees) at 8 MPH (7 knots; 3.6 m/s)
Visibility:10 or more sm (16+ km)
Ceiling:3500 feet AGL
Clouds: overcast cloud deck at 3500 feet AGL
QC Flag:automated observation with no human augmentation